sensor_id;sensor_type;location;lat;lon;timestamp;P1;durP1;ratioP1;P2;durP2;ratioP2
30605;SDS011;17371;51.328;3.860;2022-10-03T00:01:55;13.48;;;3.30;;
30605;SDS011;17371;51.328;3.860;2022-10-03T00:04:38;16.87;;;3.30;;
30605;SDS011;17371;51.328;3.860;2022-10-03T00:07:12;10.88;;;3.53;;
30605;SDS011;17371;51.328;3.860;2022-10-03T00:09:47;8.45;;;3.35;;
30605;SDS011;17371;51.328;3.860;2022-10-03T00:12:30;10.82;;;3.25;;
30605;SDS011;17371;51.328;3.860;2022-10-03T00:15:02;10.05;;;3.03;;
30605;SDS011;17371;51.328;3.860;2022-10-03T00:17:35;14.77;;;3.40;;
30605;SDS011;17371;51.328;3.860;2022-10-03T00:20:26;12.32;;;3.47;;
30605;SDS011;17371;51.328;3.860;2022-10-03T00:22:59;14.95;;;3.65;;
30605;SDS011;17371;51.328;3.860;2022-10-03T00:25:29;16.30;;;3.72;;
30605;SDS011;17371;51.328;3.860;2022-10-03T00:28:06;15.48;;;3.65;;
30605;SDS011;17371;51.328;3.860;2022-10-03T00:30:45;11.07;;;3.80;;
30605;SDS011;17371;51.328;3.860;2022-10-03T00:33:17;16.30;;;3.60;;
30605;SDS011;17371;51.328;3.860;2022-10-03T00:36:02;15.95;;;3.67;;
30605;SDS011;17371;51.328;3.860;2022-10-03T00:38:51;15.05;;;3.85;;
30605;SDS011;17371;51.328;3.860;2022-10-03T00:41:29;14.13;;;4.15;;
30605;SDS011;17371;51.328;3.860;2022-10-03T00:47:37;11.95;;;3.50;;
30605;SDS011;17371;51.328;3.860;2022-10-03T00:50:18;10.23;;;3.50;;
30605;SDS011;17371;51.328;3.860;2022-10-03T00:52:57;10.40;;;3.72;;
30605;SDS011;17371;51.328;3.860;2022-10-03T00:55:44;20.77;;;4.75;;
30605;SDS011;17371;51.328;3.860;2022-10-03T00:58:23;14.70;;;4.37;;
30605;SDS011;17371;51.328;3.860;2022-10-03T01:00:56;19.90;;;4.60;;
30605;SDS011;17371;51.328;3.860;2022-10-03T01:03:30;18.67;;;4.50;;
30605;SDS011;17371;51.328;3.860;2022-10-03T01:06:05;19.48;;;5.00;;
30605;SDS011;17371;51.328;3.860;2022-10-03T01:08:40;24.80;;;5.15;;
30605;SDS011;17371;51.328;3.860;2022-10-03T01:11:15;15.53;;;4.77;;
30605;SDS011;17371;51.328;3.860;2022-10-03T01:13:49;14.02;;;4.28;;
30605;SDS011;17371;51.328;3.860;2022-10-03T01:16:27;16.58;;;4.93;;
30605;SDS011;17371;51.328;3.860;2022-10-03T01:18:57;17.40;;;5.15;;
30605;SDS011;17371;51.328;3.860;2022-10-03T01:21:27;14.05;;;4.32;;
30605;SDS011;17371;51.328;3.860;2022-10-03T01:24:04;15.47;;;5.03;;
30605;SDS011;17371;51.328;3.860;2022-10-03T01:26:52;14.18;;;5.30;;
30605;SDS011;17371;51.328;3.860;2022-10-03T01:29:21;15.90;;;5.55;;
30605;SDS011;17371;51.328;3.860;2022-10-03T01:31:50;19.20;;;5.30;;
30605;SDS011;17371;51.328;3.860;2022-10-03T01:34:21;16.95;;;5.07;;
30605;SDS011;17371;51.328;3.860;2022-10-03T01:37:02;13.57;;;5.10;;
30605;SDS011;17371;51.328;3.860;2022-10-03T01:39:33;16.67;;;4.82;;
30605;SDS011;17371;51.328;3.860;2022-10-03T01:42:05;21.20;;;6.00;;
30605;SDS011;17371;51.328;3.860;2022-10-03T01:44:37;13.45;;;5.60;;
30605;SDS011;17371;51.328;3.860;2022-10-03T01:47:13;19.58;;;6.82;;
30605;SDS011;17371;51.328;3.860;2022-10-03T01:49:45;21.70;;;6.53;;
30605;SDS011;17371;51.328;3.860;2022-10-03T01:52:14;20.65;;;7.07;;
30605;SDS011;17371;51.328;3.860;2022-10-03T01:54:45;16.15;;;6.25;;
30605;SDS011;17371;51.328;3.860;2022-10-03T01:57:16;20.30;;;6.95;;
30605;SDS011;17371;51.328;3.860;2022-10-03T01:59:47;23.10;;;8.40;;
30605;SDS011;17371;51.328;3.860;2022-10-03T02:02:20;20.93;;;7.03;;
30605;SDS011;17371;51.328;3.860;2022-10-03T02:04:55;23.42;;;7.38;;
30605;SDS011;17371;51.328;3.860;2022-10-03T02:07:27;35.88;;;8.85;;
30605;SDS011;17371;51.328;3.860;2022-10-03T02:10:01;22.83;;;8.75;;
30605;SDS011;17371;51.328;3.860;2022-10-03T02:12:30;24.77;;;7.93;;
30605;SDS011;17371;51.328;3.860;2022-10-03T02:15:05;23.00;;;8.03;;
30605;SDS011;17371;51.328;3.860;2022-10-03T02:17:41;20.23;;;8.38;;
30605;SDS011;17371;51.328;3.860;2022-10-03T02:20:08;22.52;;;8.05;;
30605;SDS011;17371;51.328;3.860;2022-10-03T02:22:44;29.83;;;9.20;;
30605;SDS011;17371;51.328;3.860;2022-10-03T02:25:14;51.75;;;9.98;;
30605;SDS011;17371;51.328;3.860;2022-10-03T02:27:47;24.47;;;9.00;;
30605;SDS011;17371;51.328;3.860;2022-10-03T02:30:50;16.77;;;8.40;;
30605;SDS011;17371;51.328;3.860;2022-10-03T02:33:24;23.30;;;8.95;;
30605;SDS011;17371;51.328;3.860;2022-10-03T02:39:00;22.75;;;9.95;;
30605;SDS011;17371;51.328;3.860;2022-10-03T02:41:58;27.70;;;10.30;;
30605;SDS011;17371;51.328;3.860;2022-10-03T02:44:59;30.27;;;10.35;;
30605;SDS011;17371;51.328;3.860;2022-10-03T02:47:44;36.55;;;11.32;;
30605;SDS011;17371;51.328;3.860;2022-10-03T02:50:34;30.70;;;11.48;;
30605;SDS011;17371;51.328;3.860;2022-10-03T02:59:28;31.48;;;11.57;;
30605;SDS011;17371;51.328;3.860;2022-10-03T03:02:07;33.17;;;12.68;;
30605;SDS011;17371;51.328;3.860;2022-10-03T03:07:54;34.03;;;12.00;;
30605;SDS011;17371;51.328;3.860;2022-10-03T03:10:41;30.48;;;11.57;;
30605;SDS011;17371;51.328;3.860;2022-10-03T03:16:37;31.75;;;12.02;;
30605;SDS011;17371;51.328;3.860;2022-10-03T03:19:11;35.95;;;12.75;;
30605;SDS011;17371;51.328;3.860;2022-10-03T03:21:43;29.08;;;12.00;;
30605;SDS011;17371;51.328;3.860;2022-10-03T03:24:23;33.88;;;12.40;;
30605;SDS011;17371;51.328;3.860;2022-10-03T03:27:17;37.20;;;12.93;;
30605;SDS011;17371;51.328;3.860;2022-10-03T03:29:52;35.00;;;11.93;;
30605;SDS011;17371;51.328;3.860;2022-10-03T03:32:23;37.40;;;12.63;;
30605;SDS011;17371;51.328;3.860;2022-10-03T03:34:57;32.45;;;13.13;;
30605;SDS011;17371;51.328;3.860;2022-10-03T03:37:29;40.70;;;13.40;;
30605;SDS011;17371;51.328;3.860;2022-10-03T03:40:04;35.80;;;12.53;;
30605;SDS011;17371;51.328;3.860;2022-10-03T03:42:45;38.42;;;11.85;;
30605;SDS011;17371;51.328;3.860;2022-10-03T03:45:24;28.98;;;11.63;;
30605;SDS011;17371;51.328;3.860;2022-10-03T03:47:58;33.58;;;12.20;;
30605;SDS011;17371;51.328;3.860;2022-10-03T03:50:32;33.92;;;12.18;;
30605;SDS011;17371;51.328;3.860;2022-10-03T03:53:08;37.33;;;12.20;;
30605;SDS011;17371;51.328;3.860;2022-10-03T03:58:34;39.58;;;11.20;;
30605;SDS011;17371;51.328;3.860;2022-10-03T04:01:28;43.03;;;11.38;;
30605;SDS011;17371;51.328;3.860;2022-10-03T04:04:05;38.38;;;11.57;;
30605;SDS011;17371;51.328;3.860;2022-10-03T04:06:40;43.87;;;11.63;;
30605;SDS011;17371;51.328;3.860;2022-10-03T04:09:15;36.85;;;11.68;;
30605;SDS011;17371;51.328;3.860;2022-10-03T04:11:53;33.83;;;11.52;;
30605;SDS011;17371;51.328;3.860;2022-10-03T04:14:33;35.22;;;12.05;;
30605;SDS011;17371;51.328;3.860;2022-10-03T04:17:10;41.10;;;12.02;;
30605;SDS011;17371;51.328;3.860;2022-10-03T04:19:43;35.53;;;10.67;;
30605;SDS011;17371;51.328;3.860;2022-10-03T04:22:23;41.65;;;11.57;;
30605;SDS011;17371;51.328;3.860;2022-10-03T04:30:39;40.50;;;11.60;;
30605;SDS011;17371;51.328;3.860;2022-10-03T04:33:19;39.73;;;12.40;;
30605;SDS011;17371;51.328;3.860;2022-10-03T04:35:55;36.33;;;11.80;;
30605;SDS011;17371;51.328;3.860;2022-10-03T04:38:48;37.70;;;11.18;;
30605;SDS011;17371;51.328;3.860;2022-10-03T04:41:23;36.60;;;11.27;;
30605;SDS011;17371;51.328;3.860;2022-10-03T04:43:53;45.20;;;12.13;;
30605;SDS011;17371;51.328;3.860;2022-10-03T04:46:26;36.43;;;12.37;;
30605;SDS011;17371;51.328;3.860;2022-10-03T04:48:57;34.67;;;11.10;;
30605;SDS011;17371;51.328;3.860;2022-10-03T04:51:28;38.05;;;11.85;;
30605;SDS011;17371;51.328;3.860;2022-10-03T04:54:00;37.97;;;11.50;;
30605;SDS011;17371;51.328;3.860;2022-10-03T04:56:31;40.78;;;12.43;;
30605;SDS011;17371;51.328;3.860;2022-10-03T04:59:07;35.60;;;11.27;;
30605;SDS011;17371;51.328;3.860;2022-10-03T05:01:44;36.13;;;10.88;;
30605;SDS011;17371;51.328;3.860;2022-10-03T05:04:18;43.53;;;11.93;;
30605;SDS011;17371;51.328;3.860;2022-10-03T05:06:53;39.42;;;11.15;;
30605;SDS011;17371;51.328;3.860;2022-10-03T05:09:24;34.20;;;10.65;;
30605;SDS011;17371;51.328;3.860;2022-10-03T05:11:55;34.63;;;11.50;;
30605;SDS011;17371;51.328;3.860;2022-10-03T05:14:27;43.35;;;10.68;;
30605;SDS011;17371;51.328;3.860;2022-10-03T05:16:59;37.75;;;11.07;;
30605;SDS011;17371;51.328;3.860;2022-10-03T05:22:20;39.25;;;11.23;;
30605;SDS011;17371;51.328;3.860;2022-10-03T05:24:54;35.30;;;10.37;;
30605;SDS011;17371;51.328;3.860;2022-10-03T05:27:22;32.15;;;11.77;;
30605;SDS011;17371;51.328;3.860;2022-10-03T05:29:58;35.50;;;11.45;;
30605;SDS011;17371;51.328;3.860;2022-10-03T05:32:29;42.28;;;11.93;;
30605;SDS011;17371;51.328;3.860;2022-10-03T05:35:01;42.58;;;12.02;;
30605;SDS011;17371;51.328;3.860;2022-10-03T05:37:52;38.57;;;10.90;;
30605;SDS011;17371;51.328;3.860;2022-10-03T05:40:41;39.53;;;12.10;;
30605;SDS011;17371;51.328;3.860;2022-10-03T05:43:20;39.88;;;11.88;;
30605;SDS011;17371;51.328;3.860;2022-10-03T05:45:53;39.25;;;12.70;;
30605;SDS011;17371;51.328;3.860;2022-10-03T05:48:29;43.60;;;11.82;;
30605;SDS011;17371;51.328;3.860;2022-10-03T05:51:04;36.10;;;11.67;;
30605;SDS011;17371;51.328;3.860;2022-10-03T05:53:43;35.45;;;10.45;;
30605;SDS011;17371;51.328;3.860;2022-10-03T05:56:24;37.90;;;11.43;;
30605;SDS011;17371;51.328;3.860;2022-10-03T06:02:17;32.45;;;11.85;;
30605;SDS011;17371;51.328;3.860;2022-10-03T06:08:20;33.35;;;11.10;;
30605;SDS011;17371;51.328;3.860;2022-10-03T06:11:00;31.20;;;11.98;;
30605;SDS011;17371;51.328;3.860;2022-10-03T06:13:35;38.85;;;11.68;;
30605;SDS011;17371;51.328;3.860;2022-10-03T06:16:10;35.08;;;11.35;;
30605;SDS011;17371;51.328;3.860;2022-10-03T06:21:41;36.58;;;12.77;;
30605;SDS011;17371;51.328;3.860;2022-10-03T06:30:40;45.35;;;14.18;;
30605;SDS011;17371;51.328;3.860;2022-10-03T06:33:31;52.53;;;15.63;;
30605;SDS011;17371;51.328;3.860;2022-10-03T06:39:29;45.47;;;14.80;;
30605;SDS011;17371;51.328;3.860;2022-10-03T06:42:21;49.85;;;14.38;;
30605;SDS011;17371;51.328;3.860;2022-10-03T06:45:09;59.40;;;16.50;;
30605;SDS011;17371;51.328;3.860;2022-10-03T06:47:51;63.73;;;17.33;;
30605;SDS011;17371;51.328;3.860;2022-10-03T06:50:34;61.53;;;17.30;;
30605;SDS011;17371;51.328;3.860;2022-10-03T06:53:17;57.92;;;19.33;;
30605;SDS011;17371;51.328;3.860;2022-10-03T06:56:02;66.55;;;19.33;;
30605;SDS011;17371;51.328;3.860;2022-10-03T07:07:37;69.40;;;21.27;;
30605;SDS011;17371;51.328;3.860;2022-10-03T07:10:28;78.00;;;24.23;;
30605;SDS011;17371;51.328;3.860;2022-10-03T07:15:51;81.10;;;26.67;;
30605;SDS011;17371;51.328;3.860;2022-10-03T07:18:36;78.43;;;28.33;;
30605;SDS011;17371;51.328;3.860;2022-10-03T07:21:37;83.15;;;28.38;;
30605;SDS011;17371;51.328;3.860;2022-10-03T07:24:16;89.72;;;29.73;;
30605;SDS011;17371;51.328;3.860;2022-10-03T07:30:05;87.73;;;32.30;;
30605;SDS011;17371;51.328;3.860;2022-10-03T07:32:38;90.43;;;30.88;;
30605;SDS011;17371;51.328;3.860;2022-10-03T07:38:17;83.85;;;31.05;;
30605;SDS011;17371;51.328;3.860;2022-10-03T07:41:03;82.32;;;33.53;;
30605;SDS011;17371;51.328;3.860;2022-10-03T07:43:52;83.80;;;34.17;;
30605;SDS011;17371;51.328;3.860;2022-10-03T07:49:41;86.72;;;34.10;;
30605;SDS011;17371;51.328;3.860;2022-10-03T07:52:24;94.63;;;35.33;;
30605;SDS011;17371;51.328;3.860;2022-10-03T07:55:29;94.68;;;35.60;;
30605;SDS011;17371;51.328;3.860;2022-10-03T07:58:11;88.63;;;35.33;;
30605;SDS011;17371;51.328;3.860;2022-10-03T08:00:47;83.25;;;35.80;;
30605;SDS011;17371;51.328;3.860;2022-10-03T08:03:40;81.22;;;36.20;;
30605;SDS011;17371;51.328;3.860;2022-10-03T08:06:18;85.22;;;36.58;;
30605;SDS011;17371;51.328;3.860;2022-10-03T08:12:11;98.40;;;37.40;;
30605;SDS011;17371;51.328;3.860;2022-10-03T08:14:47;84.47;;;37.33;;
30605;SDS011;17371;51.328;3.860;2022-10-03T08:17:22;83.07;;;36.95;;
30605;SDS011;17371;51.328;3.860;2022-10-03T08:20:06;84.97;;;37.22;;
30605;SDS011;17371;51.328;3.860;2022-10-03T08:22:50;82.00;;;35.20;;
30605;SDS011;17371;51.328;3.860;2022-10-03T08:25:25;91.23;;;35.93;;
30605;SDS011;17371;51.328;3.860;2022-10-03T08:34:13;77.32;;;32.63;;
30605;SDS011;17371;51.328;3.860;2022-10-03T08:36:59;82.47;;;34.10;;
30605;SDS011;17371;51.328;3.860;2022-10-03T08:39:37;75.70;;;32.37;;
30605;SDS011;17371;51.328;3.860;2022-10-03T08:45:29;77.90;;;33.72;;
30605;SDS011;17371;51.328;3.860;2022-10-03T08:51:16;62.80;;;31.58;;
30605;SDS011;17371;51.328;3.860;2022-10-03T08:57:04;67.43;;;30.80;;
30605;SDS011;17371;51.328;3.860;2022-10-03T09:05:36;63.63;;;31.30;;
30605;SDS011;17371;51.328;3.860;2022-10-03T09:08:27;68.20;;;32.10;;
30605;SDS011;17371;51.328;3.860;2022-10-03T09:11:08;67.18;;;31.13;;
30605;SDS011;17371;51.328;3.860;2022-10-03T09:17:03;55.40;;;28.38;;
30605;SDS011;17371;51.328;3.860;2022-10-03T09:25:32;45.08;;;20.05;;
30605;SDS011;17371;51.328;3.860;2022-10-03T09:28:22;55.25;;;19.85;;
30605;SDS011;17371;51.328;3.860;2022-10-03T09:30:58;46.67;;;17.95;;
30605;SDS011;17371;51.328;3.860;2022-10-03T09:49:18;29.70;;;12.35;;
30605;SDS011;17371;51.328;3.860;2022-10-03T09:52:01;28.73;;;10.60;;
30605;SDS011;17371;51.328;3.860;2022-10-03T09:54:51;21.67;;;8.95;;
30605;SDS011;17371;51.328;3.860;2022-10-03T10:00:23;24.33;;;8.70;;
30605;SDS011;17371;51.328;3.860;2022-10-03T10:06:00;22.73;;;6.80;;
30605;SDS011;17371;51.328;3.860;2022-10-03T10:08:35;20.88;;;6.00;;
30605;SDS011;17371;51.328;3.860;2022-10-03T10:11:33;17.30;;;5.68;;
30605;SDS011;17371;51.328;3.860;2022-10-03T10:14:20;15.75;;;4.40;;
30605;SDS011;17371;51.328;3.860;2022-10-03T10:20:01;12.57;;;4.80;;
30605;SDS011;17371;51.328;3.860;2022-10-03T10:25:50;16.02;;;4.15;;
30605;SDS011;17371;51.328;3.860;2022-10-03T10:28:34;10.77;;;3.50;;
30605;SDS011;17371;51.328;3.860;2022-10-03T10:31:31;14.55;;;4.00;;
30605;SDS011;17371;51.328;3.860;2022-10-03T10:34:16;12.73;;;4.63;;
30605;SDS011;17371;51.328;3.860;2022-10-03T10:37:26;15.07;;;4.10;;
30605;SDS011;17371;51.328;3.860;2022-10-03T10:40:38;12.27;;;3.90;;
30605;SDS011;17371;51.328;3.860;2022-10-03T10:46:31;16.50;;;3.90;;
30605;SDS011;17371;51.328;3.860;2022-10-03T10:49:44;14.55;;;3.67;;
30605;SDS011;17371;51.328;3.860;2022-10-03T10:52:46;13.45;;;4.00;;
30605;SDS011;17371;51.328;3.860;2022-10-03T11:01:52;18.10;;;4.45;;
30605;SDS011;17371;51.328;3.860;2022-10-03T11:04:40;17.90;;;4.00;;
30605;SDS011;17371;51.328;3.860;2022-10-03T11:07:39;16.42;;;4.20;;
30605;SDS011;17371;51.328;3.860;2022-10-03T11:10:34;12.48;;;3.50;;
30605;SDS011;17371;51.328;3.860;2022-10-03T11:13:22;13.15;;;3.88;;
30605;SDS011;17371;51.328;3.860;2022-10-03T11:16:30;13.88;;;3.08;;
30605;SDS011;17371;51.328;3.860;2022-10-03T11:19:21;14.13;;;3.22;;
30605;SDS011;17371;51.328;3.860;2022-10-03T11:25:36;12.32;;;2.85;;
30605;SDS011;17371;51.328;3.860;2022-10-03T11:31:30;14.55;;;2.72;;
30605;SDS011;17371;51.328;3.860;2022-10-03T11:37:33;11.38;;;2.72;;
30605;SDS011;17371;51.328;3.860;2022-10-03T11:43:28;11.85;;;2.92;;
30605;SDS011;17371;51.328;3.860;2022-10-03T11:46:22;11.82;;;2.78;;
30605;SDS011;17371;51.328;3.860;2022-10-03T11:48:57;10.23;;;3.30;;
30605;SDS011;17371;51.328;3.860;2022-10-03T11:51:30;12.43;;;4.53;;
30605;SDS011;17371;51.328;3.860;2022-10-03T11:54:04;17.80;;;6.60;;
30605;SDS011;17371;51.328;3.860;2022-10-03T11:56:37;20.60;;;7.53;;
30605;SDS011;17371;51.328;3.860;2022-10-03T11:59:17;16.23;;;7.22;;
30605;SDS011;17371;51.328;3.860;2022-10-03T12:02:06;17.33;;;7.70;;
30605;SDS011;17371;51.328;3.860;2022-10-03T12:04:39;20.95;;;7.13;;
30605;SDS011;17371;51.328;3.860;2022-10-03T12:07:12;16.08;;;5.93;;
30605;SDS011;17371;51.328;3.860;2022-10-03T12:09:45;13.43;;;5.65;;
30605;SDS011;17371;51.328;3.860;2022-10-03T12:12:20;15.68;;;6.40;;
30605;SDS011;17371;51.328;3.860;2022-10-03T12:14:52;18.48;;;6.18;;
30605;SDS011;17371;51.328;3.860;2022-10-03T12:17:20;18.60;;;6.20;;
30605;SDS011;17371;51.328;3.860;2022-10-03T12:19:54;19.15;;;6.53;;
30605;SDS011;17371;51.328;3.860;2022-10-03T12:22:26;20.58;;;6.65;;
30605;SDS011;17371;51.328;3.860;2022-10-03T12:25:00;13.40;;;6.18;;
30605;SDS011;17371;51.328;3.860;2022-10-03T12:27:30;20.27;;;7.07;;
30605;SDS011;17371;51.328;3.860;2022-10-03T12:30:01;15.43;;;8.30;;
30605;SDS011;17371;51.328;3.860;2022-10-03T12:32:30;14.68;;;6.00;;
30605;SDS011;17371;51.328;3.860;2022-10-03T12:35:07;15.02;;;5.28;;
30605;SDS011;17371;51.328;3.860;2022-10-03T12:37:40;14.52;;;5.40;;
30605;SDS011;17371;51.328;3.860;2022-10-03T12:40:13;13.68;;;5.25;;
30605;SDS011;17371;51.328;3.860;2022-10-03T12:42:43;13.23;;;4.55;;
30605;SDS011;17371;51.328;3.860;2022-10-03T12:45:16;14.65;;;4.45;;
30605;SDS011;17371;51.328;3.860;2022-10-03T12:47:52;9.93;;;3.88;;
30605;SDS011;17371;51.328;3.860;2022-10-03T12:50:34;15.15;;;4.57;;
30605;SDS011;17371;51.328;3.860;2022-10-03T12:53:07;15.07;;;5.30;;
30605;SDS011;17371;51.328;3.860;2022-10-03T12:55:46;14.82;;;4.40;;
30605;SDS011;17371;51.328;3.860;2022-10-03T12:58:23;15.25;;;4.43;;
30605;SDS011;17371;51.328;3.860;2022-10-03T13:00:55;11.45;;;4.05;;
30605;SDS011;17371;51.328;3.860;2022-10-03T13:03:24;11.45;;;4.05;;
30605;SDS011;17371;51.328;3.860;2022-10-03T13:06:11;12.45;;;3.90;;
30605;SDS011;17371;51.328;3.860;2022-10-03T13:08:50;11.05;;;4.53;;
30605;SDS011;17371;51.328;3.860;2022-10-03T13:14:15;15.13;;;4.40;;
30605;SDS011;17371;51.328;3.860;2022-10-03T13:16:51;10.35;;;3.50;;
30605;SDS011;17371;51.328;3.860;2022-10-03T13:19:22;13.23;;;4.05;;
30605;SDS011;17371;51.328;3.860;2022-10-03T13:21:51;9.50;;;3.65;;
30605;SDS011;17371;51.328;3.860;2022-10-03T13:24:25;8.50;;;3.50;;
30605;SDS011;17371;51.328;3.860;2022-10-03T13:26:57;12.63;;;3.53;;
30605;SDS011;17371;51.328;3.860;2022-10-03T13:29:30;9.00;;;3.20;;
30605;SDS011;17371;51.328;3.860;2022-10-03T13:32:02;11.02;;;3.13;;
30605;SDS011;17371;51.328;3.860;2022-10-03T13:34:32;12.48;;;3.25;;
30605;SDS011;17371;51.328;3.860;2022-10-03T13:37:01;7.97;;;2.97;;
30605;SDS011;17371;51.328;3.860;2022-10-03T13:39:32;9.32;;;2.70;;
30605;SDS011;17371;51.328;3.860;2022-10-03T13:42:19;9.45;;;3.08;;
30605;SDS011;17371;51.328;3.860;2022-10-03T13:44:47;8.80;;;2.88;;
30605;SDS011;17371;51.328;3.860;2022-10-03T13:50:11;9.48;;;3.17;;
30605;SDS011;17371;51.328;3.860;2022-10-03T13:52:40;9.88;;;3.40;;
30605;SDS011;17371;51.328;3.860;2022-10-03T13:58:04;10.75;;;2.92;;
30605;SDS011;17371;51.328;3.860;2022-10-03T14:00:45;12.38;;;3.28;;
30605;SDS011;17371;51.328;3.860;2022-10-03T14:03:19;10.75;;;2.75;;
30605;SDS011;17371;51.328;3.860;2022-10-03T14:08:48;8.27;;;2.45;;
30605;SDS011;17371;51.328;3.860;2022-10-03T14:11:24;10.02;;;2.60;;
30605;SDS011;17371;51.328;3.860;2022-10-03T14:14:01;8.30;;;2.10;;
30605;SDS011;17371;51.328;3.860;2022-10-03T14:16:36;6.07;;;1.98;;
30605;SDS011;17371;51.328;3.860;2022-10-03T14:19:06;8.52;;;2.08;;
30605;SDS011;17371;51.328;3.860;2022-10-03T14:21:39;11.85;;;1.90;;
30605;SDS011;17371;51.328;3.860;2022-10-03T14:27:00;8.02;;;1.83;;
30605;SDS011;17371;51.328;3.860;2022-10-03T14:29:31;6.55;;;1.75;;
30605;SDS011;17371;51.328;3.860;2022-10-03T14:32:01;10.45;;;1.80;;
30605;SDS011;17371;51.328;3.860;2022-10-03T14:34:37;7.50;;;1.90;;
30605;SDS011;17371;51.328;3.860;2022-10-03T14:37:12;6.82;;;1.70;;
30605;SDS011;17371;51.328;3.860;2022-10-03T14:39:45;8.77;;;2.10;;
30605;SDS011;17371;51.328;3.860;2022-10-03T14:42:26;6.75;;;1.85;;
30605;SDS011;17371;51.328;3.860;2022-10-03T14:44:58;11.02;;;2.20;;
30605;SDS011;17371;51.328;3.860;2022-10-03T14:47:25;8.27;;;2.40;;
30605;SDS011;17371;51.328;3.860;2022-10-03T14:49:57;8.30;;;2.00;;
30605;SDS011;17371;51.328;3.860;2022-10-03T14:52:25;10.27;;;2.45;;
30605;SDS011;17371;51.328;3.860;2022-10-03T14:54:54;12.07;;;2.50;;
30605;SDS011;17371;51.328;3.860;2022-10-03T14:57:24;11.20;;;2.38;;
30605;SDS011;17371;51.328;3.860;2022-10-03T14:59:54;9.13;;;2.10;;
30605;SDS011;17371;51.328;3.860;2022-10-03T15:02:24;8.27;;;1.93;;
30605;SDS011;17371;51.328;3.860;2022-10-03T15:04:52;7.30;;;1.88;;
30605;SDS011;17371;51.328;3.860;2022-10-03T15:07:20;10.77;;;2.00;;
30605;SDS011;17371;51.328;3.860;2022-10-03T15:09:56;7.55;;;2.15;;
30605;SDS011;17371;51.328;3.860;2022-10-03T15:12:22;6.45;;;1.83;;
30605;SDS011;17371;51.328;3.860;2022-10-03T15:14:52;7.60;;;1.98;;
30605;SDS011;17371;51.328;3.860;2022-10-03T15:17:23;10.33;;;2.10;;
30605;SDS011;17371;51.328;3.860;2022-10-03T15:19:52;7.13;;;1.85;;
30605;SDS011;17371;51.328;3.860;2022-10-03T15:22:21;10.73;;;1.90;;
30605;SDS011;17371;51.328;3.860;2022-10-03T15:24:54;10.45;;;2.03;;
30605;SDS011;17371;51.328;3.860;2022-10-03T15:27:22;7.53;;;2.10;;
30605;SDS011;17371;51.328;3.860;2022-10-03T15:29:49;7.60;;;2.00;;
30605;SDS011;17371;51.328;3.860;2022-10-03T15:32:18;9.45;;;1.90;;
30605;SDS011;17371;51.328;3.860;2022-10-03T15:34:48;11.05;;;2.28;;
30605;SDS011;17371;51.328;3.860;2022-10-03T15:37:17;10.00;;;1.97;;
30605;SDS011;17371;51.328;3.860;2022-10-03T15:39:45;7.82;;;1.90;;
30605;SDS011;17371;51.328;3.860;2022-10-03T15:42:20;14.25;;;2.42;;
30605;SDS011;17371;51.328;3.860;2022-10-03T15:44:48;12.23;;;2.00;;
30605;SDS011;17371;51.328;3.860;2022-10-03T15:47:16;8.52;;;1.88;;
30605;SDS011;17371;51.328;3.860;2022-10-03T15:49:44;9.35;;;2.63;;
30605;SDS011;17371;51.328;3.860;2022-10-03T15:52:14;10.93;;;2.35;;
30605;SDS011;17371;51.328;3.860;2022-10-03T15:54:46;10.27;;;1.98;;
30605;SDS011;17371;51.328;3.860;2022-10-03T15:57:16;7.20;;;1.65;;
30605;SDS011;17371;51.328;3.860;2022-10-03T15:59:42;6.82;;;1.83;;
30605;SDS011;17371;51.328;3.860;2022-10-03T16:02:11;8.68;;;1.60;;
30605;SDS011;17371;51.328;3.860;2022-10-03T16:04:41;8.88;;;1.95;;
30605;SDS011;17371;51.328;3.860;2022-10-03T16:07:09;9.43;;;2.10;;
30605;SDS011;17371;51.328;3.860;2022-10-03T16:09:40;9.45;;;2.15;;
30605;SDS011;17371;51.328;3.860;2022-10-03T16:12:21;6.97;;;2.00;;
30605;SDS011;17371;51.328;3.860;2022-10-03T16:15:13;7.93;;;2.00;;
30605;SDS011;17371;51.328;3.860;2022-10-03T16:17:42;4.95;;;1.85;;
30605;SDS011;17371;51.328;3.860;2022-10-03T16:20:12;13.00;;;2.10;;
30605;SDS011;17371;51.328;3.860;2022-10-03T16:22:43;10.90;;;2.05;;
30605;SDS011;17371;51.328;3.860;2022-10-03T16:25:12;8.70;;;2.00;;
30605;SDS011;17371;51.328;3.860;2022-10-03T16:27:40;7.00;;;2.22;;
30605;SDS011;17371;51.328;3.860;2022-10-03T16:30:15;6.47;;;1.90;;
30605;SDS011;17371;51.328;3.860;2022-10-03T16:32:45;8.02;;;2.30;;
30605;SDS011;17371;51.328;3.860;2022-10-03T16:35:19;7.78;;;1.83;;
30605;SDS011;17371;51.328;3.860;2022-10-03T16:37:49;10.57;;;2.25;;
30605;SDS011;17371;51.328;3.860;2022-10-03T16:40:19;8.70;;;2.17;;
30605;SDS011;17371;51.328;3.860;2022-10-03T16:42:45;9.02;;;2.08;;
30605;SDS011;17371;51.328;3.860;2022-10-03T16:45:17;8.85;;;1.98;;
30605;SDS011;17371;51.328;3.860;2022-10-03T16:47:45;9.93;;;2.13;;
30605;SDS011;17371;51.328;3.860;2022-10-03T16:50:17;10.00;;;2.30;;
30605;SDS011;17371;51.328;3.860;2022-10-03T16:52:45;6.38;;;1.95;;
30605;SDS011;17371;51.328;3.860;2022-10-03T16:55:13;9.90;;;2.47;;
30605;SDS011;17371;51.328;3.860;2022-10-03T16:57:42;6.63;;;2.30;;
30605;SDS011;17371;51.328;3.860;2022-10-03T17:00:19;5.50;;;2.10;;
30605;SDS011;17371;51.328;3.860;2022-10-03T17:02:46;7.10;;;2.45;;
30605;SDS011;17371;51.328;3.860;2022-10-03T17:05:12;8.37;;;2.30;;
30605;SDS011;17371;51.328;3.860;2022-10-03T17:07:38;9.13;;;2.40;;
30605;SDS011;17371;51.328;3.860;2022-10-03T17:10:05;9.50;;;2.35;;
30605;SDS011;17371;51.328;3.860;2022-10-03T17:12:46;11.27;;;2.50;;
30605;SDS011;17371;51.328;3.860;2022-10-03T17:15:15;11.90;;;3.63;;
30605;SDS011;17371;51.328;3.860;2022-10-03T17:17:43;7.03;;;2.60;;
30605;SDS011;17371;51.328;3.860;2022-10-03T17:20:14;9.48;;;2.55;;
30605;SDS011;17371;51.328;3.860;2022-10-03T17:22:41;12.82;;;5.07;;
30605;SDS011;17371;51.328;3.860;2022-10-03T17:28:01;13.55;;;5.30;;
30605;SDS011;17371;51.328;3.860;2022-10-03T17:30:28;9.95;;;4.20;;
30605;SDS011;17371;51.328;3.860;2022-10-03T17:32:58;11.55;;;3.53;;
30605;SDS011;17371;51.328;3.860;2022-10-03T17:35:28;14.05;;;3.70;;
30605;SDS011;17371;51.328;3.860;2022-10-03T17:41:03;8.48;;;2.85;;
30605;SDS011;17371;51.328;3.860;2022-10-03T17:43:41;10.57;;;2.97;;
30605;SDS011;17371;51.328;3.860;2022-10-03T17:46:11;8.98;;;3.35;;
30605;SDS011;17371;51.328;3.860;2022-10-03T17:48:42;8.00;;;2.65;;
30605;SDS011;17371;51.328;3.860;2022-10-03T17:51:25;8.90;;;2.78;;
30605;SDS011;17371;51.328;3.860;2022-10-03T17:53:53;9.25;;;3.10;;
30605;SDS011;17371;51.328;3.860;2022-10-03T17:56:21;9.18;;;3.05;;
30605;SDS011;17371;51.328;3.860;2022-10-03T17:58:49;9.45;;;2.97;;
30605;SDS011;17371;51.328;3.860;2022-10-03T18:01:16;7.88;;;3.15;;
30605;SDS011;17371;51.328;3.860;2022-10-03T18:03:45;8.43;;;3.00;;
30605;SDS011;17371;51.328;3.860;2022-10-03T18:06:36;14.73;;;4.32;;
30605;SDS011;17371;51.328;3.860;2022-10-03T18:09:07;16.58;;;5.20;;
30605;SDS011;17371;51.328;3.860;2022-10-03T18:11:35;11.63;;;4.30;;
30605;SDS011;17371;51.328;3.860;2022-10-03T18:14:04;10.65;;;3.60;;
30605;SDS011;17371;51.328;3.860;2022-10-03T18:16:36;9.57;;;3.57;;
30605;SDS011;17371;51.328;3.860;2022-10-03T18:19:04;10.68;;;4.03;;
30605;SDS011;17371;51.328;3.860;2022-10-03T18:21:34;13.38;;;3.88;;
30605;SDS011;17371;51.328;3.860;2022-10-03T18:24:12;12.60;;;4.43;;